createdAt,value
2023-05-02T00:01:23.012Z,100418.19
2023-05-02T00:04:26.267Z,100417.13
2023-05-02T00:07:28.220Z,100409.97
2023-05-02T00:10:30.339Z,100411.81
2023-05-02T00:13:32.166Z,100409.56
2023-05-02T00:16:34.006Z,100403.38
2023-05-02T00:19:42.284Z,100401.09
2023-05-02T00:22:44.062Z,100405.69
2023-05-02T00:25:46.478Z,100403.53
2023-05-02T00:28:48.372Z,100419.94
2023-05-02T00:31:50.048Z,100416.88
2023-05-02T00:34:53.703Z,100418.47
2023-05-02T00:37:55.385Z,100431.03
2023-05-02T00:40:57.734Z,100421.69
2023-05-02T00:43:59.549Z,100428.63
2023-05-02T00:47:02.373Z,100423.59
2023-05-02T00:50:06.832Z,100427.25
2023-05-02T00:53:10.164Z,100429.75
2023-05-02T00:56:11.856Z,100432.16
2023-05-02T00:59:14.794Z,100439.97
2023-05-02T01:02:29.490Z,100436.03
2023-05-02T01:05:41.580Z,100430.94
2023-05-02T01:08:52.786Z,100427.47
2023-05-02T01:12:04.239Z,100431.94
2023-05-02T01:15:10.708Z,100436.31
2023-05-02T01:18:14.701Z,100434.53
2023-05-02T01:21:18.283Z,100441.53
2023-05-02T01:24:24.971Z,100451.41
2023-05-02T01:27:34.526Z,100450.72
2023-05-02T01:30:40.286Z,100461.38
2023-05-02T01:33:44.684Z,100467.03
2023-05-02T01:36:50.418Z,100457.91
2023-05-02T01:39:54.241Z,100470.00
2023-05-02T01:42:58.177Z,100472.16
2023-05-02T01:46:04.446Z,100481.56
2023-05-02T01:49:07.926Z,100479.28
2023-05-02T01:52:13.252Z,100491.31
2023-05-02T01:55:18.271Z,100484.03
2023-05-02T01:58:22.288Z,100488.53
2023-05-02T02:01:28.900Z,100491.97
2023-05-02T02:04:32.821Z,100502.78
2023-05-02T02:07:35.682Z,100500.81
2023-05-02T02:10:43.824Z,100498.00
2023-05-02T02:13:49.969Z,100507.75
2023-05-02T02:16:56.173Z,100504.97
2023-05-02T02:20:06.426Z,100516.22
2023-05-02T02:23:09.550Z,100512.06
2023-05-02T02:26:13.563Z,100511.31
2023-05-02T02:29:15.235Z,100520.72
2023-05-02T02:32:18.289Z,100526.72
2023-05-02T02:35:20.331Z,100528.72
2023-05-02T02:38:31.704Z,100531.47
2023-05-02T02:41:39.795Z,100532.69
2023-05-02T02:44:53.547Z,100534.25
2023-05-02T02:48:11.205Z,100524.97
2023-05-02T02:51:15.829Z,100534.38
2023-05-02T02:54:26.549Z,100541.91
2023-05-02T02:57:39.363Z,100530.81
2023-05-02T03:00:44.379Z,100537.56
2023-05-02T03:03:48.421Z,100539.28
2023-05-02T03:06:51.000Z,100546.66
2023-05-02T03:09:53.089Z,100550.66
2023-05-02T03:12:58.111Z,100551.41
2023-05-02T03:16:29.728Z,100558.81
2023-05-02T03:19:33.242Z,100556.97
2023-05-02T03:22:36.069Z,100566.19
2023-05-02T03:25:37.924Z,100565.72
2023-05-02T03:28:40.892Z,100564.16
2023-05-02T03:31:44.082Z,100562.44
2023-05-02T03:34:48.479Z,100566.09
2023-05-02T03:37:50.860Z,100568.25
2023-05-02T03:40:53.109Z,100573.91
2023-05-02T03:43:54.869Z,100581.34
2023-05-02T03:46:58.697Z,100583.34
2023-05-02T03:50:03.506Z,100586.25
2023-05-02T03:53:07.933Z,100582.41
2023-05-02T03:56:20.262Z,100584.97
2023-05-02T03:59:32.978Z,100587.97
2023-05-02T04:02:36.635Z,100590.00
2023-05-02T04:05:40.139Z,100597.47
2023-05-02T04:08:43.435Z,100605.19
2023-05-02T04:11:45.734Z,100606.44
2023-05-02T04:14:48.646Z,100616.59
2023-05-02T04:17:50.639Z,100628.84
2023-05-02T04:20:53.872Z,100638.28
2023-05-02T04:23:58.212Z,100645.53
2023-05-02T04:27:01.392Z,100644.31
2023-05-02T04:30:04.288Z,100638.63
2023-05-02T04:33:06.088Z,100646.97
2023-05-02T04:36:12.527Z,100654.38
2023-05-02T04:39:20.515Z,100656.53
2023-05-02T04:42:37.810Z,100664.25
2023-05-02T04:45:50.380Z,100665.34
2023-05-02T04:49:00.239Z,100677.75
2023-05-02T04:52:03.948Z,100668.63
2023-05-02T04:55:07.995Z,100674.66
2023-05-02T04:58:10.790Z,100678.50
2023-05-02T05:01:13.173Z,100683.44
2023-05-02T05:04:15.664Z,100695.19
2023-05-02T05:07:19.095Z,100695.50
2023-05-02T05:10:22.713Z,100697.22
2023-05-02T05:13:24.498Z,100707.31
2023-05-02T05:16:27.456Z,100718.91
2023-05-02T05:19:30.226Z,100725.84
2023-05-02T05:22:38.847Z,100724.63
2023-05-02T05:25:42.952Z,100730.63
2023-05-02T05:28:47.961Z,100726.16
2023-05-02T05:31:49.844Z,100735.88
2023-05-02T05:34:54.172Z,100739.91
2023-05-02T05:37:59.702Z,100748.53
2023-05-02T05:41:02.929Z,100746.53
2023-05-02T05:44:05.033Z,100758.31
2023-05-02T05:47:07.011Z,100762.16
2023-05-02T05:50:09.588Z,100767.72
2023-05-02T05:53:14.265Z,100769.13
2023-05-02T05:56:18.224Z,100769.56
2023-05-02T05:59:27.424Z,100770.03
2023-05-02T06:02:29.294Z,100782.53
2023-05-02T06:05:31.431Z,100783.47
2023-05-02T06:08:34.544Z,100780.25
2023-05-02T06:11:38.057Z,100784.88
2023-05-02T06:14:40.004Z,100782.09
2023-05-02T06:17:41.795Z,100786.38
2023-05-02T06:20:44.003Z,100784.22
2023-05-02T06:23:47.090Z,100796.84
2023-05-02T06:26:49.258Z,100796.06
2023-05-02T06:29:51.247Z,100802.66
2023-05-02T06:32:52.913Z,100806.81
2023-05-02T06:35:54.559Z,100803.28
2023-05-02T06:38:57.606Z,100814.16
2023-05-02T06:41:59.563Z,100813.53
2023-05-02T06:45:02.682Z,100819.94
2023-05-02T06:48:04.643Z,100815.41
2023-05-02T06:51:06.360Z,100830.56
2023-05-02T06:54:09.604Z,100828.31
2023-05-02T06:57:11.547Z,100826.56
2023-05-02T07:00:14.909Z,100828.06
2023-05-02T07:03:17.090Z,100838.56
2023-05-02T07:06:19.048Z,100842.25
2023-05-02T07:09:22.386Z,100844.31
2023-05-02T07:12:24.610Z,100846.50
2023-05-02T07:15:26.575Z,100845.16
2023-05-02T07:18:28.235Z,100846.63
2023-05-02T07:21:30.056Z,100849.13
2023-05-02T07:24:33.204Z,100853.78
2023-05-02T07:27:35.055Z,100843.97
2023-05-02T07:30:37.328Z,100846.00
2023-05-02T07:33:39.075Z,100844.91
2023-05-02T07:36:41.163Z,100847.03
2023-05-02T07:39:44.198Z,100843.53
2023-05-02T07:42:46.701Z,100848.09
2023-05-02T07:45:48.451Z,100849.66
2023-05-02T07:48:50.390Z,100858.94
2023-05-02T07:51:52.110Z,100849.91
2023-05-02T07:54:55.691Z,100861.22
2023-05-02T07:57:57.601Z,100857.91
2023-05-02T08:00:59.283Z,100858.91
2023-05-02T08:04:01.298Z,100866.78
2023-05-02T08:07:03.166Z,100866.91
2023-05-02T08:10:07.941Z,100868.50
2023-05-02T08:13:09.702Z,100868.19
2023-05-02T08:16:11.628Z,100879.66
2023-05-02T08:19:13.351Z,100878.44
2023-05-02T08:22:15.162Z,100884.47
2023-05-02T08:25:18.259Z,100881.88
2023-05-02T08:28:19.930Z,100880.94
2023-05-02T08:31:22.191Z,100891.50
2023-05-02T08:34:23.907Z,100889.03
2023-05-02T08:37:26.243Z,100892.72
2023-05-02T08:40:41.502Z,100903.41
2023-05-02T08:43:44.468Z,100894.66
2023-05-02T08:46:47.467Z,100899.28
2023-05-02T08:49:50.636Z,100902.28
2023-05-02T08:52:53.867Z,100906.69
2023-05-02T08:55:57.215Z,100910.47
2023-05-02T08:58:59.254Z,100912.41
2023-05-02T09:02:11.726Z,100917.38
2023-05-02T09:05:19.179Z,100925.59
2023-05-02T09:08:24.547Z,100928.22
2023-05-02T09:11:27.903Z,100927.31
2023-05-02T09:14:29.764Z,100939.00
2023-05-02T09:17:39.778Z,100947.25
2023-05-02T09:20:41.811Z,100937.75
2023-05-02T09:23:44.898Z,100949.31
2023-05-02T09:26:58.416Z,100951.16
2023-05-02T09:30:18.698Z,100961.16
2023-05-02T09:33:31.776Z,100961.47
2023-05-02T09:36:39.951Z,100949.00
2023-05-02T09:40:01.987Z,100957.63
2023-05-02T09:43:18.955Z,100969.09
2023-05-02T09:46:20.949Z,100968.97
2023-05-02T09:49:41.093Z,100967.25
2023-05-02T09:53:01.281Z,100970.56
2023-05-02T09:56:04.545Z,100967.47
2023-05-02T09:59:14.730Z,100961.97
2023-05-02T10:02:16.701Z,100969.66
2023-05-02T10:05:20.708Z,100970.53
2023-05-02T10:08:25.756Z,100966.25
2023-05-02T10:11:27.517Z,100968.19
2023-05-02T10:14:31.803Z,100970.38
2023-05-02T10:17:43.573Z,100961.47
2023-05-02T10:20:54.511Z,100978.34
2023-05-02T10:23:56.574Z,100960.78
2023-05-02T10:26:59.125Z,100966.22
2023-05-02T10:30:04.565Z,100975.00
2023-05-02T10:33:06.563Z,100964.22
2023-05-02T10:36:13.113Z,100964.22
2023-05-02T10:39:15.056Z,100950.84
2023-05-02T10:42:19.627Z,100965.91
2023-05-02T10:45:33.706Z,100965.28
2023-05-02T10:48:35.737Z,100970.25
2023-05-02T10:51:39.127Z,100962.13
2023-05-02T10:54:41.150Z,100966.09
2023-05-02T10:58:22.341Z,100973.31
2023-05-02T11:01:37.597Z,100961.44
2023-05-02T11:05:02.107Z,100965.00
2023-05-02T11:08:32.274Z,100957.75
2023-05-02T11:11:42.735Z,100960.03
2023-05-02T11:14:47.434Z,100956.69
2023-05-02T11:18:03.864Z,100968.41
2023-05-02T11:21:28.648Z,100960.63
2023-05-02T11:24:39.023Z,100958.34
2023-05-02T11:27:41.334Z,100961.09
2023-05-02T11:30:45.284Z,100958.97
2023-05-02T11:33:56.248Z,100954.13
2023-05-02T11:36:57.915Z,100964.44
2023-05-02T11:40:10.834Z,100961.69
2023-05-02T11:43:13.489Z,100962.19
2023-05-02T11:46:17.462Z,100951.97
2023-05-02T11:49:20.699Z,100961.81
2023-05-02T11:52:23.335Z,100947.97
2023-05-02T11:55:25.330Z,100957.38
2023-05-02T11:58:33.191Z,100948.66
2023-05-02T12:01:34.926Z,100951.16
2023-05-02T12:04:46.910Z,100949.81
2023-05-02T12:07:51.620Z,100958.72
2023-05-02T12:10:54.688Z,100955.88
2023-05-02T12:13:56.604Z,100958.22
2023-05-02T12:16:59.394Z,100949.22
2023-05-02T12:20:03.756Z,100950.38
2023-05-02T12:23:12.823Z,100948.91
2023-05-02T12:26:18.742Z,100951.25
2023-05-02T12:29:20.420Z,100952.84
2023-05-02T12:32:29.153Z,100952.22
2023-05-02T12:35:33.606Z,100952.25
2023-05-02T12:38:36.034Z,100956.22
2023-05-02T12:41:43.909Z,100956.19
2023-05-02T12:44:47.845Z,100963.81
2023-05-02T12:47:51.291Z,100966.53
2023-05-02T12:50:55.653Z,100966.22
2023-05-02T12:53:57.468Z,100959.41
2023-05-02T12:56:59.760Z,100957.19
2023-05-02T13:00:02.283Z,100951.50
2023-05-02T13:03:05.339Z,100950.56
2023-05-02T13:06:08.901Z,100951.53
2023-05-02T13:09:11.557Z,100941.44
2023-05-02T13:12:14.283Z,100951.75
2023-05-02T13:15:16.300Z,100944.19
2023-05-02T13:18:18.797Z,100945.22
2023-05-02T13:21:21.975Z,100948.25
2023-05-02T13:24:23.869Z,100948.16
2023-05-02T13:27:26.103Z,100939.66
2023-05-02T13:30:28.321Z,100947.59
2023-05-02T13:33:30.609Z,100944.47
2023-05-02T13:36:33.787Z,100941.97
2023-05-02T13:39:35.808Z,100947.81
2023-05-02T13:42:37.806Z,100951.81
2023-05-02T13:45:39.551Z,100948.94
2023-05-02T13:48:41.431Z,100957.75
2023-05-02T13:51:44.596Z,100959.28
2023-05-02T13:54:46.476Z,100967.09
2023-05-02T13:57:48.551Z,100966.16
2023-05-02T14:00:50.723Z,100968.09
2023-05-02T14:03:52.769Z,100968.44
2023-05-02T14:06:56.446Z,100964.34
2023-05-02T14:09:58.334Z,100970.16
2023-05-02T14:13:00.140Z,100972.13
2023-05-02T14:16:01.898Z,100969.84
2023-05-02T14:19:03.712Z,100964.22
2023-05-02T14:22:07.356Z,100963.84
2023-05-02T14:25:09.503Z,100985.06
2023-05-02T14:28:11.557Z,100968.44
2023-05-02T14:31:13.995Z,100978.44
2023-05-02T14:34:16.123Z,100977.66
2023-05-02T14:37:19.353Z,100974.97
2023-05-02T14:40:21.131Z,100974.88
2023-05-02T14:43:23.071Z,100976.97
2023-05-02T14:46:24.853Z,100975.56
2023-05-02T14:49:27.509Z,100976.63
2023-05-02T14:52:30.964Z,100966.78
2023-05-02T14:55:36.366Z,100976.97
2023-05-02T14:58:38.600Z,100973.69
2023-05-02T15:01:40.538Z,100974.19
2023-05-02T15:04:42.730Z,100981.19
2023-05-02T15:07:45.867Z,100976.25
2023-05-02T15:10:47.699Z,100976.25
2023-05-02T15:13:49.546Z,100988.97
2023-05-02T15:16:51.484Z,100987.25
2023-05-02T15:19:54.236Z,100981.28
2023-05-02T15:23:03.088Z,100985.63
2023-05-02T15:26:04.976Z,100984.81
2023-05-02T15:29:07.015Z,100981.00
2023-05-02T15:32:12.673Z,100971.44
2023-05-02T15:35:14.656Z,100980.22
2023-05-02T15:38:19.205Z,100974.06
2023-05-02T15:41:21.180Z,100982.00
2023-05-02T15:44:23.127Z,100988.19
2023-05-02T15:47:25.124Z,100980.22
2023-05-02T15:50:27.443Z,100985.44
2023-05-02T15:53:31.119Z,100985.09
2023-05-02T15:56:33.295Z,100980.69
2023-05-02T15:59:35.202Z,100977.06
2023-05-02T16:02:38.003Z,100981.28
2023-05-02T16:05:40.131Z,100986.19
2023-05-02T16:08:44.029Z,100992.16
2023-05-02T16:11:46.060Z,100995.59
2023-05-02T16:14:47.801Z,100987.63
2023-05-02T16:17:50.566Z,100994.66
2023-05-02T16:20:52.878Z,100987.81
2023-05-02T16:23:56.084Z,100983.91
2023-05-02T16:26:58.086Z,100992.69
2023-05-02T16:30:00.415Z,100990.91
2023-05-02T16:33:03.339Z,100996.22
2023-05-02T16:36:06.131Z,100999.91
2023-05-02T16:39:10.749Z,100997.59
2023-05-02T16:42:12.882Z,100992.22
2023-05-02T16:45:15.365Z,100995.22
2023-05-02T16:48:17.744Z,100995.22
2023-05-02T16:51:20.169Z,101008.75
2023-05-02T16:54:23.582Z,100998.56
2023-05-02T16:57:25.525Z,101000.44
2023-05-02T17:00:27.469Z,101001.28
2023-05-02T17:03:29.864Z,100994.88
2023-05-02T17:06:32.035Z,101000.53
2023-05-02T17:09:36.998Z,101009.13
2023-05-02T17:12:38.893Z,101004.13
2023-05-02T17:15:41.224Z,101004.16
2023-05-02T17:18:43.487Z,101002.28
2023-05-02T17:21:45.749Z,101008.63
2023-05-02T17:24:52.805Z,101018.47
2023-05-02T17:27:54.788Z,101010.03
2023-05-02T17:30:59.053Z,101016.41
2023-05-02T17:34:01.123Z,101016.38
2023-05-02T17:37:03.084Z,101012.06
2023-05-02T17:40:07.975Z,101020.47
2023-05-02T17:43:09.900Z,101030.63
2023-05-02T17:46:12.067Z,101031.63
2023-05-02T17:49:14.098Z,101038.00
2023-05-02T17:52:15.891Z,101032.56
2023-05-02T17:55:19.907Z,101041.63
2023-05-02T17:58:22.052Z,101046.44
2023-05-02T18:01:23.938Z,101049.88
2023-05-02T18:04:26.656Z,101052.00
2023-05-02T18:07:30.405Z,101057.41
2023-05-02T18:10:37.289Z,101056.19
2023-05-02T18:13:39.740Z,101055.31
2023-05-02T18:16:47.001Z,101063.34
2023-05-02T18:19:50.225Z,101062.28
2023-05-02T18:22:52.301Z,101066.88
2023-05-02T18:25:55.993Z,101076.25
2023-05-02T18:28:58.165Z,101076.59
2023-05-02T18:31:59.880Z,101077.78
2023-05-02T18:35:02.232Z,101086.94
2023-05-02T18:38:06.731Z,101096.03
2023-05-02T18:41:29.749Z,101091.34
2023-05-02T18:44:32.100Z,101092.00
2023-05-02T18:47:34.196Z,101098.03
2023-05-02T18:50:35.941Z,101106.06
2023-05-02T18:53:37.863Z,101116.53
2023-05-02T18:56:41.521Z,101112.00
2023-05-02T18:59:43.534Z,101122.13
2023-05-02T19:02:45.448Z,101127.75
2023-05-02T19:05:47.357Z,101133.44
2023-05-02T19:08:49.260Z,101142.38
2023-05-02T19:11:54.997Z,101142.72
2023-05-02T19:14:56.757Z,101144.97
2023-05-02T19:17:58.797Z,101155.91
2023-05-02T19:21:07.990Z,101156.03
2023-05-02T19:24:09.732Z,101159.22
2023-05-02T19:27:12.873Z,101164.00
2023-05-02T19:30:14.942Z,101170.03
2023-05-02T19:33:16.702Z,101182.94
2023-05-02T19:36:19.228Z,101187.09
2023-05-02T19:39:21.205Z,101186.56
2023-05-02T19:42:24.441Z,101185.78
2023-05-02T19:45:26.475Z,101200.44
2023-05-02T19:48:28.400Z,101204.28
2023-05-02T19:51:34.107Z,101197.03
2023-05-02T19:54:35.765Z,101196.09
2023-05-02T19:57:40.087Z,101198.28
2023-05-02T20:00:42.444Z,101208.66
2023-05-02T20:03:44.389Z,101216.84
2023-05-02T20:06:46.633Z,101219.47
2023-05-02T20:09:48.445Z,101219.31
2023-05-02T20:12:51.501Z,101216.69
2023-05-02T20:15:53.694Z,101221.19
2023-05-02T20:18:55.813Z,101215.03
2023-05-02T20:21:57.541Z,101224.94
2023-05-02T20:24:59.808Z,101224.34
2023-05-02T20:28:03.031Z,101227.88
2023-05-02T20:31:04.858Z,101223.81
2023-05-02T20:34:07.208Z,101230.59
2023-05-02T20:37:10.796Z,101229.53
2023-05-02T20:40:13.819Z,101233.81
2023-05-02T20:43:18.809Z,101231.63
2023-05-02T20:46:21.206Z,101230.50
2023-05-02T20:49:22.988Z,101238.91
2023-05-02T20:52:25.363Z,101229.50
2023-05-02T20:55:27.550Z,101245.13
2023-05-02T20:58:30.936Z,101238.88
2023-05-02T21:01:33.589Z,101241.97
2023-05-02T21:04:35.397Z,101237.59
2023-05-02T21:07:37.148Z,101244.28
2023-05-02T21:10:38.951Z,101236.22
2023-05-02T21:13:43.037Z,101243.22
2023-05-02T21:16:45.685Z,101250.81
2023-05-02T21:19:47.389Z,101242.38
2023-05-02T21:22:53.239Z,101249.41
2023-05-02T21:25:56.046Z,101253.41
2023-05-02T21:28:59.487Z,101264.91
2023-05-02T21:32:01.737Z,101266.94
2023-05-02T21:35:04.374Z,101271.09
2023-05-02T21:38:06.223Z,101271.25
2023-05-02T21:41:08.863Z,101263.88
2023-05-02T21:44:13.824Z,101270.78
2023-05-02T21:47:15.897Z,101276.06
2023-05-02T21:50:18.017Z,101283.53
2023-05-02T21:53:19.840Z,101285.56
2023-05-02T21:56:21.510Z,101280.38
2023-05-02T21:59:24.516Z,101266.03
2023-05-02T22:02:27.662Z,101276.66
2023-05-02T22:05:29.417Z,101268.00
2023-05-02T22:08:31.508Z,101266.53
2023-05-02T22:11:33.219Z,101267.03
2023-05-02T22:14:44.548Z,101263.66
2023-05-02T22:17:48.235Z,101266.88
2023-05-02T22:20:50.633Z,101276.56
2023-05-02T22:23:52.501Z,101283.63
2023-05-02T22:26:55.533Z,101272.22
2023-05-02T22:29:58.721Z,101282.19
2023-05-02T22:33:01.558Z,101284.53
2023-05-02T22:36:03.641Z,101273.84
2023-05-02T22:39:11.899Z,101281.75
2023-05-02T22:42:13.574Z,101276.25
2023-05-02T22:45:17.046Z,101277.72
2023-05-02T22:48:18.981Z,101281.53
2023-05-02T22:51:20.893Z,101276.13
2023-05-02T22:54:22.604Z,101279.16
2023-05-02T22:57:25.203Z,101287.75
2023-05-02T23:00:28.738Z,101292.25
2023-05-02T23:03:30.658Z,101290.50
2023-05-02T23:06:32.951Z,101295.97
2023-05-02T23:09:34.864Z,101292.06
2023-05-02T23:12:36.547Z,101287.38
2023-05-02T23:15:40.393Z,101286.09
2023-05-02T23:18:42.758Z,101287.78
2023-05-02T23:21:44.446Z,101290.56
2023-05-02T23:24:47.478Z,101296.25
2023-05-02T23:27:49.165Z,101294.38
2023-05-02T23:30:53.562Z,101296.63
2023-05-02T23:33:55.948Z,101287.47
2023-05-02T23:36:58.032Z,101292.34
2023-05-02T23:40:00.973Z,101304.50
2023-05-02T23:43:03.377Z,101297.22
2023-05-02T23:46:06.880Z,101306.00
2023-05-02T23:49:08.821Z,101301.72
2023-05-02T23:52:10.778Z,101302.84
2023-05-02T23:55:12.832Z,101300.75
2023-05-02T23:58:14.684Z,101297.22
